createdAt,value
2023-09-08T00:02:26.688Z,20.83
2023-09-08T00:04:54.131Z,20.95
2023-09-08T00:07:22.256Z,21.03
2023-09-08T00:09:49.187Z,21.11
2023-09-08T00:12:15.713Z,21.19
2023-09-08T00:14:42.450Z,21.16
2023-09-08T00:17:09.047Z,21.05
2023-09-08T00:19:35.725Z,20.95
2023-09-08T00:22:02.340Z,20.88
2023-09-08T00:24:29.004Z,20.84
2023-09-08T00:26:55.961Z,20.83
2023-09-08T00:29:22.668Z,20.87
2023-09-08T00:31:49.226Z,20.94
2023-09-08T00:34:15.901Z,21.00
2023-09-08T00:36:42.374Z,21.11
2023-09-08T00:39:08.975Z,21.28
2023-09-08T00:41:35.560Z,21.34
2023-09-08T00:44:02.196Z,21.33
2023-09-08T00:46:28.885Z,21.29
2023-09-08T00:48:57.138Z,21.18
2023-09-08T00:51:23.675Z,21.12
2023-09-08T00:53:51.146Z,21.02
2023-09-08T00:56:17.876Z,21.03
2023-09-08T00:58:44.988Z,21.11
2023-09-08T01:03:37.916Z,21.15
2023-09-08T01:06:05.355Z,21.17
2023-09-08T01:08:32.555Z,21.17
2023-09-08T01:10:59.592Z,21.06
2023-09-08T01:13:26.046Z,20.88
2023-09-08T01:15:52.623Z,20.70
2023-09-08T01:18:19.317Z,20.54
2023-09-08T01:21:23.836Z,20.46
2023-09-08T01:24:00.386Z,20.57
2023-09-08T01:26:38.129Z,20.58
2023-09-08T01:29:06.504Z,20.57
2023-09-08T01:31:34.172Z,20.57
2023-09-08T01:34:06.166Z,20.49
2023-09-08T01:36:32.776Z,20.50
2023-09-08T01:38:59.242Z,20.46
2023-09-08T01:41:25.672Z,20.53
2023-09-08T01:43:52.067Z,20.41
2023-09-08T01:46:18.542Z,20.19
2023-09-08T01:48:45.769Z,20.07
2023-09-08T01:51:12.271Z,20.03
2023-09-08T01:53:38.738Z,19.88
2023-09-08T01:56:05.221Z,19.84
2023-09-08T01:58:33.870Z,19.80
2023-09-08T02:01:06.666Z,19.75
2023-09-08T02:03:33.791Z,19.64
2023-09-08T02:06:00.332Z,19.55
2023-09-08T02:08:27.075Z,19.50
2023-09-08T02:10:53.496Z,19.48
2023-09-08T02:13:19.999Z,19.46
2023-09-08T02:15:46.688Z,19.42
2023-09-08T02:18:14.437Z,19.41
2023-09-08T02:20:41.088Z,19.37
2023-09-08T02:23:08.498Z,19.34
2023-09-08T02:25:35.261Z,19.25
2023-09-08T02:28:01.935Z,19.15
2023-09-08T02:30:28.757Z,19.11
2023-09-08T02:32:56.325Z,19.10
2023-09-08T02:35:25.411Z,19.15
2023-09-08T02:37:52.016Z,19.08
2023-09-08T02:40:18.747Z,18.99
2023-09-08T02:42:45.320Z,18.93
2023-09-08T02:45:11.886Z,18.95
2023-09-08T02:47:38.437Z,18.93
2023-09-08T02:50:05.893Z,18.79
2023-09-08T02:52:32.482Z,18.70
2023-09-08T02:54:58.918Z,18.68
2023-09-08T02:57:25.424Z,18.61
2023-09-08T02:59:52.413Z,18.56
2023-09-08T03:02:19.131Z,18.57
2023-09-08T03:04:45.730Z,18.58
2023-09-08T03:07:12.223Z,18.55
2023-09-08T03:09:38.745Z,18.56
2023-09-08T03:12:05.814Z,18.52
2023-09-08T03:14:32.324Z,18.51
2023-09-08T03:16:59.070Z,18.46
2023-09-08T03:19:25.694Z,18.36
2023-09-08T03:21:52.106Z,18.33
2023-09-08T03:24:18.811Z,18.33
2023-09-08T03:26:45.463Z,18.28
2023-09-08T03:29:12.073Z,18.29
2023-09-08T03:31:38.778Z,18.28
2023-09-08T03:34:05.430Z,18.21
2023-09-08T03:36:32.272Z,18.18
2023-09-08T03:38:59.396Z,18.13
2023-09-08T03:41:26.134Z,18.12
2023-09-08T03:43:52.628Z,18.07
2023-09-08T03:46:19.261Z,18.12
2023-09-08T03:48:45.778Z,18.12
2023-09-08T03:51:12.158Z,18.11
2023-09-08T03:53:39.041Z,18.14
2023-09-08T03:56:06.033Z,18.12
2023-09-08T03:58:32.617Z,18.12
2023-09-08T04:00:59.242Z,18.12
2023-09-08T04:03:25.938Z,18.09
2023-09-08T04:05:52.460Z,18.06
2023-09-08T04:08:19.150Z,17.96
2023-09-08T04:10:45.604Z,17.88
2023-09-08T04:13:12.132Z,17.89
2023-09-08T04:15:39.218Z,17.90
2023-09-08T04:18:05.930Z,17.88
2023-09-08T04:20:32.528Z,17.87
2023-09-08T04:22:58.983Z,17.91
2023-09-08T04:25:26.636Z,17.92
2023-09-08T04:27:53.118Z,17.86
2023-09-08T04:30:20.055Z,17.79
2023-09-08T04:32:46.692Z,17.79
2023-09-08T04:35:13.209Z,17.75
2023-09-08T04:37:40.357Z,17.74
2023-09-08T04:40:08.586Z,17.64
2023-09-08T04:42:35.135Z,17.61
2023-09-08T04:45:01.722Z,17.49
2023-09-08T04:47:28.463Z,17.48
2023-09-08T04:49:54.897Z,17.46
2023-09-08T04:52:21.897Z,17.40
2023-09-08T04:54:48.342Z,17.44
2023-09-08T04:57:22.868Z,17.51
2023-09-08T04:59:50.386Z,17.49
2023-09-08T05:02:17.250Z,17.53
2023-09-08T05:04:43.727Z,17.41
2023-09-08T05:07:11.173Z,17.30
2023-09-08T05:09:37.732Z,17.31
2023-09-08T05:12:04.476Z,17.34
2023-09-08T05:14:31.100Z,17.39
2023-09-08T05:16:57.710Z,17.34
2023-09-08T05:19:24.960Z,17.32
2023-09-08T05:21:52.860Z,17.28
2023-09-08T05:24:19.381Z,17.31
2023-09-08T05:26:45.829Z,17.39
2023-09-08T05:29:12.223Z,17.42
2023-09-08T05:31:38.744Z,17.46
2023-09-08T05:34:05.374Z,17.48
2023-09-08T05:36:33.385Z,17.49
2023-09-08T05:39:00.440Z,17.45
2023-09-08T05:41:26.929Z,17.48
2023-09-08T05:43:53.459Z,17.47
2023-09-08T05:46:20.166Z,17.49
2023-09-08T05:48:48.243Z,17.52
2023-09-08T05:51:16.030Z,17.59
2023-09-08T05:53:42.678Z,17.60
2023-09-08T05:56:09.382Z,17.67
2023-09-08T05:58:36.098Z,17.76
2023-09-08T06:01:03.866Z,17.82
2023-09-08T06:03:31.119Z,17.89
2023-09-08T06:05:57.841Z,17.95
2023-09-08T06:08:24.386Z,18.00
2023-09-08T06:10:50.997Z,18.08
2023-09-08T06:13:17.382Z,18.14
2023-09-08T06:15:43.805Z,18.23
2023-09-08T06:18:10.360Z,18.31
2023-09-08T06:20:44.988Z,18.46
2023-09-08T06:23:11.600Z,18.61
2023-09-08T06:25:38.032Z,18.76
2023-09-08T06:28:04.714Z,18.90
2023-09-08T06:30:31.222Z,19.01
2023-09-08T06:32:57.933Z,19.12
2023-09-08T06:35:24.485Z,19.15
2023-09-08T06:37:51.187Z,19.29
2023-09-08T06:40:35.859Z,19.44
2023-09-08T06:43:04.087Z,19.60
2023-09-08T06:45:30.659Z,19.71
2023-09-08T06:47:57.249Z,19.87
2023-09-08T06:50:24.524Z,19.97
2023-09-08T06:52:51.282Z,20.14
2023-09-08T06:55:18.071Z,20.30
2023-09-08T06:57:45.448Z,20.49
2023-09-08T07:00:12.729Z,20.63
2023-09-08T07:02:40.281Z,20.81
2023-09-08T07:05:10.113Z,20.96
2023-09-08T07:07:36.737Z,21.13
2023-09-08T07:10:07.066Z,21.32
2023-09-08T07:12:33.675Z,21.53
2023-09-08T07:15:00.830Z,21.70
2023-09-08T07:17:27.795Z,21.90
2023-09-08T07:19:54.477Z,22.06
2023-09-08T07:22:21.037Z,22.23
2023-09-08T07:24:47.618Z,22.43
2023-09-08T07:27:15.714Z,22.61
2023-09-08T07:29:42.350Z,22.80
2023-09-08T07:32:09.128Z,22.94
2023-09-08T07:34:35.600Z,23.06
2023-09-08T07:37:02.583Z,23.23
2023-09-08T07:39:33.003Z,23.35
2023-09-08T07:42:01.842Z,23.47
2023-09-08T07:44:28.933Z,23.61
2023-09-08T07:46:57.569Z,23.76
2023-09-08T07:49:24.477Z,23.90
2023-09-08T07:51:50.935Z,24.06
2023-09-08T07:54:19.405Z,24.20
2023-09-08T07:56:47.117Z,24.27
2023-09-08T07:59:13.905Z,24.42
2023-09-08T08:01:40.398Z,24.53
2023-09-08T08:04:07.134Z,24.64
2023-09-08T08:06:33.640Z,24.78
2023-09-08T08:09:01.681Z,24.81
2023-09-08T08:11:29.649Z,24.89
2023-09-08T08:13:57.612Z,24.98
2023-09-08T08:16:24.424Z,25.09
2023-09-08T08:18:51.239Z,25.12
2023-09-08T08:21:17.828Z,25.13
2023-09-08T08:23:44.200Z,25.29
2023-09-08T08:26:10.806Z,25.39
2023-09-08T08:28:37.296Z,25.54
2023-09-08T08:31:04.796Z,25.62
2023-09-08T08:33:31.903Z,25.74
2023-09-08T08:35:58.305Z,25.84
2023-09-08T08:38:24.835Z,25.95
2023-09-08T08:41:04.029Z,25.97
2023-09-08T08:43:35.344Z,26.02
2023-09-08T08:46:02.676Z,26.06
2023-09-08T08:48:31.503Z,26.08
2023-09-08T08:51:09.645Z,26.16
2023-09-08T08:53:36.566Z,26.13
2023-09-08T08:56:04.375Z,26.19
2023-09-08T08:58:31.044Z,26.28
2023-09-08T09:01:00.031Z,26.33
2023-09-08T09:03:30.641Z,26.36
2023-09-08T09:05:57.642Z,26.39
2023-09-08T09:08:24.984Z,26.41
2023-09-08T09:10:53.020Z,26.44
2023-09-08T09:13:22.345Z,26.48
2023-09-08T09:15:50.996Z,26.53
2023-09-08T09:18:17.688Z,26.56
2023-09-08T09:20:55.277Z,26.61
2023-09-08T09:23:30.101Z,26.64
2023-09-08T09:25:56.537Z,26.71
2023-09-08T09:28:22.952Z,26.84
2023-09-08T09:30:52.473Z,26.98
2023-09-08T09:33:19.316Z,27.10
2023-09-08T09:35:53.574Z,27.16
2023-09-08T09:38:21.734Z,27.23
2023-09-08T09:40:49.355Z,27.29
2023-09-08T09:43:17.941Z,27.36
2023-09-08T09:45:45.027Z,27.38
2023-09-08T09:48:12.538Z,27.43
2023-09-08T09:50:41.176Z,27.51
2023-09-08T09:53:15.927Z,27.58
2023-09-08T09:55:45.148Z,27.75
2023-09-08T09:58:12.381Z,27.84
2023-09-08T10:00:42.341Z,27.90
2023-09-08T10:03:09.363Z,27.98
2023-09-08T10:05:37.968Z,27.95
2023-09-08T10:08:04.792Z,27.94
2023-09-08T10:10:33.718Z,28.02
2023-09-08T10:13:06.000Z,28.09
2023-09-08T10:15:32.976Z,28.12
2023-09-08T10:18:01.007Z,28.13
2023-09-08T10:20:29.662Z,28.18
2023-09-08T10:23:09.898Z,28.17
2023-09-08T10:25:42.178Z,28.26
2023-09-08T10:28:08.954Z,28.37
2023-09-08T10:30:36.146Z,28.49
2023-09-08T10:33:03.768Z,28.48
2023-09-08T10:35:31.112Z,28.50
2023-09-08T10:38:25.133Z,28.56
2023-09-08T10:40:52.510Z,28.62
2023-09-08T10:43:20.529Z,28.76
2023-09-08T10:45:48.475Z,28.75
2023-09-08T10:48:36.019Z,28.73
2023-09-08T10:51:06.052Z,28.79
2023-09-08T10:53:32.687Z,28.79
2023-09-08T10:56:16.711Z,28.84
2023-09-08T10:58:44.886Z,28.88
2023-09-08T11:01:18.548Z,28.92
2023-09-08T11:03:48.545Z,28.92
2023-09-08T11:06:20.949Z,28.94
2023-09-08T11:08:48.690Z,28.97
2023-09-08T11:11:17.251Z,29.05
2023-09-08T11:13:46.901Z,29.05
2023-09-08T11:16:14.674Z,29.06
2023-09-08T11:18:43.237Z,29.10
2023-09-08T11:21:10.951Z,29.12
2023-09-08T11:23:37.939Z,29.20
2023-09-08T11:26:04.521Z,29.22
2023-09-08T11:28:31.834Z,29.26
2023-09-08T11:30:58.339Z,29.30
2023-09-08T11:33:25.996Z,29.35
2023-09-08T11:35:56.819Z,29.40
2023-09-08T11:38:29.796Z,29.50
2023-09-08T11:40:58.616Z,29.54
2023-09-08T11:43:26.056Z,29.63
2023-09-08T11:45:52.761Z,29.79
2023-09-08T11:48:20.803Z,29.82
2023-09-08T11:50:47.301Z,29.88
2023-09-08T11:53:13.835Z,29.92
2023-09-08T11:55:40.852Z,29.87
2023-09-08T11:58:07.907Z,29.95
2023-09-08T12:00:34.541Z,30.02
2023-09-08T12:03:15.234Z,30.06
2023-09-08T12:05:43.318Z,30.13
2023-09-08T12:08:09.701Z,30.19
2023-09-08T12:10:41.286Z,30.15
2023-09-08T12:13:08.482Z,30.13
2023-09-08T12:15:39.317Z,30.24
2023-09-08T12:18:08.755Z,30.38
2023-09-08T12:20:37.285Z,30.41
2023-09-08T12:23:06.015Z,30.35
2023-09-08T12:25:32.978Z,30.40
2023-09-08T12:28:00.633Z,30.53
2023-09-08T12:30:34.302Z,30.63
2023-09-08T12:33:03.401Z,30.69
2023-09-08T12:35:32.446Z,30.79
2023-09-08T12:38:06.987Z,30.77
2023-09-08T12:40:41.717Z,30.82
2023-09-08T12:43:23.515Z,30.86
2023-09-08T12:45:54.663Z,30.89
2023-09-08T12:48:21.164Z,30.89
2023-09-08T12:50:49.121Z,30.84
2023-09-08T12:53:16.209Z,30.80
2023-09-08T12:55:42.664Z,30.82
2023-09-08T12:58:09.126Z,30.84
2023-09-08T13:00:35.591Z,30.85
2023-09-08T13:03:03.221Z,30.86
2023-09-08T13:05:29.752Z,30.81
2023-09-08T13:07:56.155Z,30.83
2023-09-08T13:10:22.730Z,30.86
2023-09-08T13:12:50.068Z,30.88
2023-09-08T13:15:16.747Z,30.99
2023-09-08T13:17:43.557Z,31.03
2023-09-08T13:20:10.575Z,31.05
2023-09-08T13:22:37.027Z,31.15
2023-09-08T13:25:04.908Z,31.28
2023-09-08T13:27:31.648Z,31.41
2023-09-08T13:30:12.807Z,31.40
2023-09-08T13:32:40.009Z,31.40
2023-09-08T13:35:07.291Z,31.28
2023-09-08T13:37:35.350Z,31.21
2023-09-08T13:40:03.627Z,31.14
2023-09-08T13:42:30.072Z,31.12
2023-09-08T13:44:56.573Z,31.10
2023-09-08T13:47:23.376Z,31.10
2023-09-08T13:49:50.970Z,31.09
2023-09-08T13:52:19.516Z,31.08
2023-09-08T13:54:46.529Z,31.16
2023-09-08T13:57:14.572Z,31.30
2023-09-08T13:59:43.247Z,31.39
2023-09-08T14:02:39.700Z,31.47
2023-09-08T14:05:02.199Z,31.47
2023-09-08T14:07:36.463Z,31.58
2023-09-08T14:10:26.438Z,31.66
2023-09-08T14:12:54.840Z,31.83
2023-09-08T14:15:21.544Z,31.84
2023-09-08T14:17:47.989Z,31.79
2023-09-08T14:20:14.533Z,31.89
2023-09-08T14:22:41.087Z,32.03
2023-09-08T14:25:07.959Z,32.06
2023-09-08T14:27:34.845Z,32.24
2023-09-08T14:30:01.322Z,32.44
2023-09-08T14:32:27.870Z,32.70
2023-09-08T14:34:54.423Z,32.86
2023-09-08T14:37:20.932Z,33.14
2023-09-08T14:39:47.593Z,33.35
2023-09-08T14:42:15.051Z,33.53
2023-09-08T14:44:41.476Z,33.80
2023-09-08T14:47:08.298Z,34.08
2023-09-08T14:49:34.654Z,34.22
2023-09-08T14:52:01.017Z,34.25
2023-09-08T14:54:28.594Z,34.35
2023-09-08T14:56:55.288Z,34.47
2023-09-08T14:59:21.769Z,34.61
2023-09-08T15:01:50.269Z,34.80
2023-09-08T15:04:16.697Z,34.72
2023-09-08T15:06:43.066Z,34.62
2023-09-08T15:09:09.576Z,34.61
2023-09-08T15:11:35.944Z,34.57
2023-09-08T15:14:02.366Z,34.40
2023-09-08T15:16:28.897Z,34.10
2023-09-08T15:18:57.794Z,33.75
2023-09-08T15:21:28.584Z,33.56
2023-09-08T15:23:55.305Z,33.43
2023-09-08T15:26:21.752Z,33.32
2023-09-08T15:28:48.129Z,33.24
2023-09-08T15:31:17.405Z,32.91
2023-09-08T15:33:44.038Z,32.75
2023-09-08T15:36:10.610Z,32.74
2023-09-08T15:38:37.071Z,32.72
2023-09-08T15:41:10.842Z,32.72
2023-09-08T15:43:39.266Z,32.82
2023-09-08T15:46:06.827Z,32.86
2023-09-08T15:48:39.234Z,32.80
2023-09-08T15:51:07.570Z,32.72
2023-09-08T15:53:34.383Z,32.58
2023-09-08T15:56:01.171Z,32.53
2023-09-08T15:58:27.643Z,32.53
2023-09-08T16:00:54.059Z,32.49
2023-09-08T16:03:21.280Z,32.45
2023-09-08T16:05:47.890Z,32.35
2023-09-08T16:08:14.286Z,32.27
2023-09-08T16:10:40.793Z,32.16
2023-09-08T16:13:07.244Z,32.06
2023-09-08T16:15:33.690Z,31.99
2023-09-08T16:18:01.101Z,31.79
2023-09-08T16:20:27.735Z,31.67
2023-09-08T16:22:54.132Z,31.47
2023-09-08T16:25:20.520Z,31.27
2023-09-08T16:27:46.931Z,31.18
2023-09-08T16:30:13.596Z,31.10
2023-09-08T16:32:41.020Z,30.98
2023-09-08T16:35:08.145Z,30.86
2023-09-08T16:37:34.731Z,30.78
2023-09-08T16:40:01.170Z,30.67
2023-09-08T16:42:27.536Z,30.56
2023-09-08T16:44:53.897Z,30.49
2023-09-08T16:47:21.505Z,30.47
2023-09-08T16:49:48.108Z,30.37
2023-09-08T16:52:14.604Z,30.31
2023-09-08T16:54:40.973Z,30.24
2023-09-08T16:57:07.392Z,30.19
2023-09-08T16:59:33.824Z,30.12
2023-09-08T17:02:00.244Z,29.99
2023-09-08T17:04:28.448Z,29.95
2023-09-08T17:06:55.038Z,29.90
2023-09-08T17:09:21.519Z,29.84
2023-09-08T17:11:47.880Z,29.75
2023-09-08T17:14:14.325Z,29.71
2023-09-08T17:16:40.668Z,29.65
2023-09-08T17:19:07.050Z,29.59
2023-09-08T17:21:33.523Z,29.51
2023-09-08T17:23:59.880Z,29.46
2023-09-08T17:26:26.581Z,29.41
2023-09-08T17:28:52.957Z,29.39
2023-09-08T17:31:19.333Z,29.37
2023-09-08T17:33:45.966Z,29.32
2023-09-08T17:36:12.518Z,29.25
2023-09-08T17:38:38.980Z,29.19
2023-09-08T17:41:05.499Z,29.14
2023-09-08T17:43:31.897Z,29.08
2023-09-08T17:46:04.407Z,29.04
2023-09-08T17:48:31.512Z,28.97
2023-09-08T17:50:57.922Z,28.92
2023-09-08T17:53:24.333Z,28.85
2023-09-08T17:55:50.867Z,28.79
2023-09-08T17:58:17.228Z,28.71
2023-09-08T18:00:43.882Z,28.62
2023-09-08T18:03:12.158Z,28.51
2023-09-08T18:05:39.948Z,28.41
2023-09-08T18:08:06.512Z,28.33
2023-09-08T18:10:32.927Z,28.26
2023-09-08T18:13:00.524Z,28.15
2023-09-08T18:15:26.982Z,28.05
2023-09-08T18:17:53.448Z,27.97
2023-09-08T18:20:19.927Z,27.87
2023-09-08T18:22:46.311Z,27.77
2023-09-08T18:25:12.690Z,27.63
2023-09-08T18:27:39.431Z,27.53
2023-09-08T18:30:06.698Z,27.40
2023-09-08T18:32:34.632Z,27.35
2023-09-08T18:35:01.233Z,27.63
2023-09-08T18:37:27.628Z,27.85
2023-09-08T18:39:54.474Z,28.07
2023-09-08T18:42:20.841Z,28.15
2023-09-08T18:44:47.179Z,28.14
2023-09-08T18:47:13.566Z,28.09
2023-09-08T18:49:40.334Z,27.94
2023-09-08T18:52:06.684Z,27.84
2023-09-08T18:54:33.138Z,27.73
2023-09-08T18:57:00.023Z,27.64
2023-09-08T18:59:26.477Z,27.53
2023-09-08T19:01:54.978Z,27.40
2023-09-08T19:04:21.329Z,27.24
2023-09-08T19:06:47.760Z,27.15
2023-09-08T19:09:14.179Z,27.06
2023-09-08T19:11:40.721Z,26.99
2023-09-08T19:14:07.204Z,26.96
2023-09-08T19:16:33.737Z,26.91
2023-09-08T19:19:00.222Z,26.94
2023-09-08T19:21:26.727Z,27.30
2023-09-08T19:23:53.098Z,27.84
2023-09-08T19:26:19.508Z,28.31
2023-09-08T19:28:45.979Z,28.66
2023-09-08T19:31:12.347Z,29.04
2023-09-08T19:33:38.973Z,29.34
2023-09-08T19:36:05.769Z,29.22
2023-09-08T19:38:32.419Z,28.91
2023-09-08T19:41:05.579Z,28.35
2023-09-08T19:43:32.249Z,27.75
2023-09-08T19:46:04.100Z,27.27
2023-09-08T19:48:30.791Z,26.84
2023-09-08T19:50:57.780Z,26.50
2023-09-08T19:53:24.118Z,26.47
2023-09-08T19:55:53.436Z,26.77
2023-09-08T19:58:20.734Z,26.91
2023-09-08T20:00:50.119Z,26.77
2023-09-08T20:03:16.812Z,26.58
2023-09-08T20:05:44.631Z,26.31
2023-09-08T20:08:12.393Z,26.18
2023-09-08T20:10:39.476Z,26.05
2023-09-08T20:13:06.008Z,25.95
2023-09-08T20:15:33.715Z,25.85
2023-09-08T20:18:00.450Z,25.82
2023-09-08T20:20:26.942Z,25.70
2023-09-08T20:22:53.332Z,25.65
2023-09-08T20:25:19.696Z,25.52
2023-09-08T20:27:48.369Z,25.40
2023-09-08T20:30:15.218Z,25.29
2023-09-08T20:32:41.728Z,25.28
2023-09-08T20:35:09.725Z,25.17
2023-09-08T20:37:36.237Z,24.99
2023-09-08T20:40:03.942Z,24.98
2023-09-08T20:42:30.479Z,24.97
2023-09-08T20:44:56.864Z,24.99
2023-09-08T20:47:23.261Z,24.89
2023-09-08T20:49:49.593Z,24.82
2023-09-08T20:52:16.031Z,24.84
2023-09-08T20:54:43.714Z,24.77
2023-09-08T20:57:10.092Z,24.79
2023-09-08T20:59:36.480Z,24.73
2023-09-08T21:02:03.174Z,24.66
2023-09-08T21:04:29.562Z,24.67
2023-09-08T21:06:57.064Z,24.62
2023-09-08T21:09:23.553Z,24.67
2023-09-08T21:11:50.063Z,24.58
2023-09-08T21:14:18.733Z,24.63
2023-09-08T21:16:45.118Z,24.69
2023-09-08T21:19:11.588Z,24.64
2023-09-08T21:21:37.987Z,24.66
2023-09-08T21:24:04.734Z,24.56
2023-09-08T21:26:31.354Z,24.39
2023-09-08T21:28:57.912Z,24.24
2023-09-08T21:31:24.481Z,24.26
2023-09-08T21:33:51.636Z,24.22
2023-09-08T21:36:18.228Z,24.04
2023-09-08T21:38:44.607Z,23.75
2023-09-08T21:41:11.443Z,23.56
2023-09-08T21:43:38.621Z,23.37
2023-09-08T21:46:07.442Z,23.23
2023-09-08T21:48:35.907Z,23.35
2023-09-08T21:51:02.879Z,23.85
2023-09-08T21:53:29.356Z,24.08
2023-09-08T21:55:55.847Z,24.00
2023-09-08T21:58:22.353Z,23.98
2023-09-08T22:00:48.958Z,23.84
2023-09-08T22:03:15.749Z,23.84
2023-09-08T22:05:43.292Z,23.86
2023-09-08T22:08:09.907Z,23.79
2023-09-08T22:10:36.441Z,23.65
2023-09-08T22:13:02.898Z,23.70
2023-09-08T22:15:29.333Z,23.63
2023-09-08T22:17:56.044Z,23.56
2023-09-08T22:20:23.487Z,23.53
2023-09-08T22:22:49.815Z,23.48
2023-09-08T22:25:16.231Z,23.46
2023-09-08T22:27:42.835Z,23.45
2023-09-08T22:30:09.652Z,23.45
2023-09-08T22:32:36.631Z,23.46
2023-09-08T22:35:05.090Z,23.46
2023-09-08T22:37:32.130Z,23.41
2023-09-08T22:39:58.630Z,23.45
2023-09-08T22:42:25.591Z,23.52
2023-09-08T22:44:52.073Z,23.54
2023-09-08T22:47:18.648Z,23.29
2023-09-08T22:50:07.020Z,23.04
2023-09-08T22:52:33.426Z,22.73
2023-09-08T22:55:12.742Z,22.63
2023-09-08T22:57:46.192Z,22.50
2023-09-08T23:00:13.295Z,22.73
2023-09-08T23:02:40.622Z,22.95
2023-09-08T23:05:08.294Z,23.19
2023-09-08T23:07:34.853Z,23.18
2023-09-08T23:10:01.321Z,23.11
2023-09-08T23:12:27.897Z,23.04
2023-09-08T23:14:54.986Z,22.88
2023-09-08T23:17:21.755Z,22.87
2023-09-08T23:19:48.426Z,22.68
2023-09-08T23:22:14.805Z,22.45
2023-09-08T23:24:41.161Z,22.20
2023-09-08T23:27:07.672Z,22.08
2023-09-08T23:29:34.380Z,22.05
2023-09-08T23:32:00.756Z,21.98
2023-09-08T23:34:27.278Z,22.34
2023-09-08T23:36:53.667Z,22.54
2023-09-08T23:39:20.046Z,22.63
2023-09-08T23:41:46.853Z,22.70
2023-09-08T23:44:13.247Z,22.65
2023-09-08T23:46:39.725Z,22.61
2023-09-08T23:49:06.222Z,22.55
2023-09-08T23:51:32.655Z,22.52
2023-09-08T23:53:59.071Z,22.49
2023-09-08T23:56:25.517Z,22.50
2023-09-08T23:58:51.969Z,22.57
